Time;durP1;ratioP1;P1;durP2;ratioP2;P2;SDS_P1;SDS_P2;PMS_P1;PMS_P2;Temp;Humidity;BMP_temperature;BMP_pressure;BME280_temperature;BME280_humidity;BME280_pressure;Samples;Min_cycle;Max_cycle;Signal;HPM_P1;HPM_P2
2021/04/25 00:00:28;;;;;;;0.00;0.00;;;;;;;;;;5054619;28;20195;-59
2021/04/25 00:02:54;;;;;;;0.00;0.00;;;;;;;;;;5059708;28;20294;-58
2021/04/25 00:05:21;;;;;;;0.93;0.90;;;;;;;;;;5058596;28;20837;-60
2021/04/25 00:07:48;;;;;;;0.00;0.00;;;;;;;;;;5059195;28;20581;-60
2021/04/25 00:10:16;;;;;;;0.00;0.00;;;;;;;;;;5049910;28;20206;-60
2021/04/25 00:12:43;;;;;;;0.77;0.67;;;;;;;;;;5054820;28;20248;-61
2021/04/25 00:15:17;;;;;;;0.67;0.40;;;;;;;;;;5053212;28;20245;-62
2021/04/25 00:17:43;;;;;;;0.00;0.00;;;;;;;;;;5054908;28;20221;-62
2021/04/25 00:20:10;;;;;;;0.00;0.00;;;;;;;;;;5057267;28;20274;-62
2021/04/25 00:22:37;;;;;;;0.67;0.50;;;;;;;;;;5046536;28;20707;-62
2021/04/25 00:25:04;;;;;;;0.00;0.00;;;;;;;;;;5052192;28;20190;-62
2021/04/25 00:27:31;;;;;;;1.30;0.10;;;;;;;;;;5053510;28;20455;-62
2021/04/25 00:29:57;;;;;;;0.00;0.00;;;;;;;;;;5058776;28;20190;-62
2021/04/25 00:32:24;;;;;;;0.00;0.00;;;;;;;;;;5060206;28;20684;-62
2021/04/25 00:34:50;;;;;;;0.73;0.27;;;;;;;;;;5056784;28;20821;-61
2021/04/25 00:37:17;;;;;;;0.10;0.10;;;;;;;;;;5059515;28;20187;-62
2021/04/25 00:39:45;;;;;;;1.80;1.70;;;;;;;;;;5057349;28;20403;-62
2021/04/25 00:42:14;;;;;;;1.07;1.00;;;;;;;;;;5059615;28;20179;-62
2021/04/25 00:44:41;;;;;;;0.10;0.10;;;;;;;;;;5061544;28;20175;-62
2021/04/25 00:47:09;;;;;;;0.10;0.10;;;;;;;;;;5059797;28;20180;-62
2021/04/25 00:49:35;;;;;;;0.00;0.00;;;;;;;;;;5058131;28;20636;-62
2021/04/25 00:52:02;;;;;;;0.00;0.00;;;;;;;;;;5060153;28;20705;-62
2021/04/25 00:54:29;;;;;;;0.20;0.20;;;;;;;;;;5055284;28;21024;-62
2021/04/25 00:56:56;;;;;;;0.47;0.33;;;;;;;;;;5053268;28;20234;-61
2021/04/25 00:59:23;;;;;;;0.30;0.20;;;;;;;;;;5051159;28;20744;-63
2021/04/25 01:01:49;;;;;;;0.93;0.70;;;;;;;;;;5044896;28;21017;-62
2021/04/25 01:04:16;;;;;;;0.00;0.00;;;;;;;;;;5055715;28;20660;-63
2021/04/25 01:06:42;;;;;;;0.60;0.40;;;;;;;;;;5054870;28;20834;-62
2021/04/25 01:09:10;;;;;;;0.00;0.00;;;;;;;;;;5061353;28;20265;-62
2021/04/25 01:11:37;;;;;;;0.10;0.10;;;;;;;;;;5058014;28;20448;-63
2021/04/25 01:14:04;;;;;;;0.20;0.20;;;;;;;;;;5053432;28;20194;-61
2021/04/25 01:16:31;;;;;;;0.33;0.20;;;;;;;;;;5054575;28;20226;-61
2021/04/25 01:18:58;;;;;;;0.10;0.10;;;;;;;;;;5058291;28;20182;-61
2021/04/25 01:21:25;;;;;;;0.83;0.43;;;;;;;;;;5057589;28;20239;-60
2021/04/25 01:23:51;;;;;;;0.10;0.10;;;;;;;;;;5056736;28;20187;-62
2021/04/25 01:26:18;;;;;;;0.10;0.10;;;;;;;;;;5056059;28;20644;-62
2021/04/25 01:28:45;;;;;;;0.40;0.40;;;;;;;;;;5054456;28;20229;-62
2021/04/25 01:31:11;;;;;;;0.30;0.30;;;;;;;;;;5056528;28;20266;-62
2021/04/25 01:33:38;;;;;;;0.00;0.00;;;;;;;;;;5055164;28;20179;-62
2021/04/25 01:36:05;;;;;;;0.00;0.00;;;;;;;;;;5055487;28;20207;-62
2021/04/25 01:38:31;;;;;;;0.70;0.60;;;;;;;;;;5058495;28;21045;-62
2021/04/25 01:40:58;;;;;;;4.97;0.63;;;;;;;;;;5051594;28;20179;-62
2021/04/25 01:43:25;;;;;;;3.00;0.50;;;;;;;;;;5054637;28;20187;-62
2021/04/25 01:45:51;;;;;;;0.40;0.30;;;;;;;;;;5056733;28;20553;-61
2021/04/25 01:48:18;;;;;;;0.77;0.30;;;;;;;;;;5055140;28;20187;-62
2021/04/25 01:50:44;;;;;;;0.10;0.10;;;;;;;;;;5052442;28;20245;-62
2021/04/25 01:53:12;;;;;;;0.00;0.00;;;;;;;;;;5052510;28;20628;-62
2021/04/25 01:55:40;;;;;;;0.10;0.10;;;;;;;;;;5054815;28;20349;-62
2021/04/25 01:58:08;;;;;;;0.00;0.00;;;;;;;;;;5059528;28;20191;-62
2021/04/25 02:00:44;;;;;;;1.40;0.67;;;;;;;;;;5057485;28;20179;-62
2021/04/25 02:03:13;;;;;;;0.00;0.00;;;;;;;;;;5057685;28;20174;-62
2021/04/25 02:05:40;;;;;;;0.00;0.00;;;;;;;;;;5055592;28;20301;-62
2021/04/25 02:08:07;;;;;;;0.00;0.00;;;;;;;;;;5050778;28;20296;-62
2021/04/25 02:10:35;;;;;;;0.40;0.40;;;;;;;;;;5060333;28;20242;-62
2021/04/25 02:13:01;;;;;;;0.10;0.10;;;;;;;;;;5054227;28;20443;-62
2021/04/25 02:15:28;;;;;;;0.40;0.20;;;;;;;;;;5054986;28;20275;-62
2021/04/25 02:17:55;;;;;;;0.00;0.00;;;;;;;;;;5055711;28;20664;-62
2021/04/25 02:20:22;;;;;;;0.10;0.10;;;;;;;;;;5057997;28;20179;-62
2021/04/25 02:22:49;;;;;;;0.97;0.40;;;;;;;;;;5061928;28;20296;-62
2021/04/25 02:25:17;;;;;;;0.90;0.90;;;;;;;;;;5055510;28;20232;-62
2021/04/25 02:27:45;;;;;;;1.03;0.60;;;;;;;;;;5060687;28;20513;-62
2021/04/25 02:30:14;;;;;;;0.30;0.30;;;;;;;;;;5061241;28;20289;-62
2021/04/25 02:32:40;;;;;;;0.30;0.30;;;;;;;;;;5057775;28;20188;-62
2021/04/25 02:35:08;;;;;;;0.10;0.10;;;;;;;;;;5058822;28;20222;-62
2021/04/25 02:37:35;;;;;;;0.10;0.10;;;;;;;;;;5060374;28;20559;-62
2021/04/25 02:40:03;;;;;;;0.10;0.10;;;;;;;;;;5059797;28;20299;-62
2021/04/25 02:42:30;;;;;;;0.00;0.00;;;;;;;;;;5056311;28;20764;-62
2021/04/25 02:44:56;;;;;;;11.33;0.77;;;;;;;;;;5052422;28;20570;-62
2021/04/25 02:47:23;;;;;;;0.57;0.57;;;;;;;;;;5051728;28;20297;-62
2021/04/25 02:49:49;;;;;;;0.00;0.00;;;;;;;;;;5053003;28;20183;-62
2021/04/25 02:52:16;;;;;;;0.00;0.00;;;;;;;;;;5058805;28;20179;-62
2021/04/25 02:54:43;;;;;;;0.00;0.00;;;;;;;;;;5058929;28;20922;-62
2021/04/25 02:57:09;;;;;;;0.00;0.00;;;;;;;;;;5056718;28;20195;-62
2021/04/25 02:59:36;;;;;;;0.10;0.10;;;;;;;;;;5051843;28;20187;-62
2021/04/25 03:02:03;;;;;;;0.10;0.10;;;;;;;;;;5052387;28;20179;-62
2021/04/25 03:04:29;;;;;;;0.67;0.10;;;;;;;;;;5056344;28;20198;-62
2021/04/25 03:06:56;;;;;;;0.53;0.53;;;;;;;;;;5053872;28;20190;-62
2021/04/25 03:09:24;;;;;;;0.00;0.00;;;;;;;;;;5052437;28;21083;-61
2021/04/25 03:11:50;;;;;;;0.03;0.03;;;;;;;;;;5057255;28;20738;-61
2021/04/25 03:14:17;;;;;;;0.07;0.07;;;;;;;;;;5054946;28;20179;-62
2021/04/25 03:16:44;;;;;;;0.10;0.10;;;;;;;;;;5055045;28;20327;-61
2021/04/25 03:19:10;;;;;;;0.00;0.00;;;;;;;;;;5052813;28;20843;-62
2021/04/25 03:21:37;;;;;;;0.00;0.00;;;;;;;;;;5055935;28;20943;-62
2021/04/25 03:24:04;;;;;;;0.23;0.23;;;;;;;;;;5058630;28;20248;-62
2021/04/25 03:26:31;;;;;;;0.10;0.10;;;;;;;;;;5057934;28;20190;-61
2021/04/25 03:28:57;;;;;;;0.10;0.10;;;;;;;;;;5054619;28;20278;-61
2021/04/25 03:31:24;;;;;;;0.30;0.30;;;;;;;;;;5054763;28;20453;-62
2021/04/25 03:33:51;;;;;;;0.00;0.00;;;;;;;;;;5055357;28;20191;-61
2021/04/25 03:36:17;;;;;;;0.63;0.63;;;;;;;;;;5049952;28;20293;-62
2021/04/25 03:38:44;;;;;;;0.87;0.87;;;;;;;;;;5053937;28;20259;-62
2021/04/25 03:41:12;;;;;;;0.10;0.10;;;;;;;;;;5047347;28;20172;-62
2021/04/25 03:43:39;;;;;;;0.23;0.23;;;;;;;;;;5053892;28;20533;-61
2021/04/25 03:46:05;;;;;;;0.07;0.07;;;;;;;;;;5051822;28;20736;-61
2021/04/25 03:48:32;;;;;;;0.27;0.27;;;;;;;;;;5050370;28;20688;-62
2021/04/25 03:50:58;;;;;;;0.07;0.07;;;;;;;;;;5048651;28;20657;-62
2021/04/25 03:53:25;;;;;;;0.10;0.10;;;;;;;;;;5054712;28;20576;-61
2021/04/25 03:55:51;;;;;;;0.47;0.47;;;;;;;;;;5046924;28;20961;-62
2021/04/25 03:58:18;;;;;;;0.40;0.40;;;;;;;;;;5055480;28;20214;-61
2021/04/25 04:00:45;;;;;;;3.57;0.70;;;;;;;;;;5056652;28;20888;-61
2021/04/25 04:03:11;;;;;;;0.30;0.30;;;;;;;;;;5054421;28;20635;-61
2021/04/25 04:05:38;;;;;;;1.23;0.37;;;;;;;;;;5052548;28;20649;-62
2021/04/25 04:08:04;;;;;;;0.20;0.20;;;;;;;;;;5053525;28;20167;-61
2021/04/25 04:10:31;;;;;;;0.10;0.10;;;;;;;;;;5051256;28;20244;-61
2021/04/25 04:12:57;;;;;;;0.83;0.27;;;;;;;;;;5058034;28;20190;-61
2021/04/25 04:15:24;;;;;;;0.13;0.13;;;;;;;;;;5058955;28;20699;-62
2021/04/25 04:17:50;;;;;;;0.57;0.07;;;;;;;;;;5061674;28;20182;-62
2021/04/25 04:20:17;;;;;;;9.23;0.97;;;;;;;;;;5059244;28;20168;-62
2021/04/25 04:22:44;;;;;;;0.00;0.00;;;;;;;;;;5060718;28;20181;-62
2021/04/25 04:25:10;;;;;;;0.13;0.13;;;;;;;;;;5062313;28;20178;-62
2021/04/25 04:27:37;;;;;;;2.27;1.03;;;;;;;;;;5059570;28;20401;-62
2021/04/25 04:30:04;;;;;;;0.10;0.10;;;;;;;;;;5075337;28;20175;-62
2021/04/25 04:32:31;;;;;;;0.10;0.10;;;;;;;;;;5070086;28;20179;-62
2021/04/25 04:34:57;;;;;;;0.10;0.10;;;;;;;;;;5059578;28;20710;-62
2021/04/25 04:37:24;;;;;;;2.43;1.17;;;;;;;;;;5058842;28;20307;-62
2021/04/25 04:39:51;;;;;;;0.30;0.30;;;;;;;;;;5059861;28;20168;-62
2021/04/25 04:42:18;;;;;;;0.00;0.00;;;;;;;;;;5059640;28;20182;-62
2021/04/25 04:44:44;;;;;;;0.20;0.20;;;;;;;;;;5058836;28;20199;-62
2021/04/25 04:47:11;;;;;;;1.60;0.50;;;;;;;;;;5058471;28;20189;-62
2021/04/25 04:49:37;;;;;;;0.17;0.17;;;;;;;;;;5058297;28;20175;-62
2021/04/25 04:52:04;;;;;;;0.40;0.20;;;;;;;;;;5058213;28;20665;-61
2021/04/25 04:54:31;;;;;;;0.30;0.30;;;;;;;;;;5058545;28;20630;-62
2021/04/25 04:56:57;;;;;;;0.40;0.40;;;;;;;;;;5058520;28;20210;-62
2021/04/25 04:59:24;;;;;;;2.20;1.23;;;;;;;;;;5058677;28;20182;-62
2021/04/25 05:01:50;;;;;;;0.20;0.20;;;;;;;;;;5050680;28;20361;-62
2021/04/25 05:04:17;;;;;;;0.20;0.20;;;;;;;;;;5041788;28;20713;-62
2021/04/25 05:06:44;;;;;;;12.27;1.40;;;;;;;;;;5058785;28;20590;-62
2021/04/25 05:09:10;;;;;;;0.10;0.10;;;;;;;;;;5058259;28;20175;-62
2021/04/25 05:11:37;;;;;;;7.13;1.20;;;;;;;;;;5067577;28;20202;-62
2021/04/25 05:14:03;;;;;;;3.70;0.30;;;;;;;;;;5057794;28;20176;-62
2021/04/25 05:16:30;;;;;;;0.50;0.50;;;;;;;;;;5056962;28;20624;-62
2021/04/25 05:18:57;;;;;;;10.20;1.33;;;;;;;;;;5056656;28;20182;-62
2021/04/25 05:21:24;;;;;;;0.33;0.20;;;;;;;;;;5057117;28;20266;-62
2021/04/25 05:23:50;;;;;;;0.10;0.10;;;;;;;;;;5060239;28;20188;-62
2021/04/25 05:26:17;;;;;;;0.57;0.57;;;;;;;;;;5057652;28;20190;-62
2021/04/25 05:28:43;;;;;;;0.10;0.10;;;;;;;;;;5057584;28;20188;-62
2021/04/25 05:31:10;;;;;;;2.83;2.63;;;;;;;;;;5058021;28;20168;-62
2021/04/25 05:33:36;;;;;;;0.10;0.10;;;;;;;;;;5057667;28;20683;-61
2021/04/25 05:36:03;;;;;;;0.57;0.57;;;;;;;;;;5057453;28;20997;-62
2021/04/25 05:38:29;;;;;;;6.57;1.90;;;;;;;;;;5057422;28;20465;-61
2021/04/25 05:40:56;;;;;;;1.13;0.73;;;;;;;;;;5057500;28;20185;-62
2021/04/25 05:43:22;;;;;;;0.20;0.20;;;;;;;;;;5057497;28;20190;-62
2021/04/25 05:45:49;;;;;;;0.10;0.10;;;;;;;;;;5057602;28;20225;-62
2021/04/25 05:48:16;;;;;;;0.10;0.10;;;;;;;;;;5058012;28;20749;-62
2021/04/25 05:50:42;;;;;;;0.20;0.20;;;;;;;;;;5056706;28;20183;-61
2021/04/25 05:53:09;;;;;;;0.57;0.57;;;;;;;;;;5057010;28;20709;-61
2021/04/25 05:55:35;;;;;;;0.10;0.10;;;;;;;;;;5057578;28;20317;-62
2021/04/25 05:58:02;;;;;;;0.10;0.10;;;;;;;;;;5058679;28;20174;-61
2021/04/25 06:00:32;;;;;;;0.60;0.40;;;;;;;;;;5061126;28;20182;-62
2021/04/25 06:02:59;;;;;;;0.27;0.27;;;;;;;;;;5061050;28;20179;-62
2021/04/25 06:05:27;;;;;;;0.10;0.10;;;;;;;;;;5061191;28;20211;-62
2021/04/25 06:07:54;;;;;;;0.10;0.10;;;;;;;;;;5061136;28;20552;-62
2021/04/25 06:10:20;;;;;;;1.60;0.63;;;;;;;;;;5061486;28;20301;-62
2021/04/25 06:12:49;;;;;;;0.20;0.20;;;;;;;;;;5060934;28;20812;-62
2021/04/25 06:15:16;;;;;;;0.00;0.00;;;;;;;;;;5060539;28;20247;-62
2021/04/25 06:17:43;;;;;;;1.20;1.20;;;;;;;;;;5061804;28;20178;-62
2021/04/25 06:20:10;;;;;;;0.43;0.17;;;;;;;;;;5061717;28;20576;-62
2021/04/25 06:22:36;;;;;;;0.00;0.00;;;;;;;;;;5062476;28;20202;-61
2021/04/25 06:25:03;;;;;;;0.40;0.40;;;;;;;;;;5062443;28;20178;-61
2021/04/25 06:27:29;;;;;;;0.10;0.10;;;;;;;;;;5062423;28;20289;-61
2021/04/25 06:29:56;;;;;;;0.30;0.30;;;;;;;;;;5061949;28;20185;-61
2021/04/25 06:32:23;;;;;;;0.10;0.10;;;;;;;;;;5065254;28;20961;-61
2021/04/25 06:34:49;;;;;;;2.70;0.37;;;;;;;;;;5069492;28;20167;-61
2021/04/25 06:37:16;;;;;;;1.03;0.90;;;;;;;;;;5061930;28;20187;-61
2021/04/25 06:39:42;;;;;;;1.73;1.50;;;;;;;;;;5061715;28;20718;-62
2021/04/25 06:42:09;;;;;;;0.13;0.13;;;;;;;;;;5076251;28;20170;-61
2021/04/25 06:44:35;;;;;;;0.00;0.00;;;;;;;;;;5082201;28;20163;-61
2021/04/25 06:47:02;;;;;;;1.07;0.97;;;;;;;;;;5082118;28;20806;-61
2021/04/25 06:49:29;;;;;;;0.20;0.20;;;;;;;;;;5064880;28;20542;-61
2021/04/25 06:51:55;;;;;;;0.20;0.20;;;;;;;;;;5061991;28;20610;-61
2021/04/25 06:54:23;;;;;;;0.93;0.77;;;;;;;;;;5061044;28;20167;-61
2021/04/25 06:56:49;;;;;;;1.40;0.53;;;;;;;;;;5061789;28;20670;-61
2021/04/25 06:59:16;;;;;;;4.20;1.67;;;;;;;;;;5061155;28;20909;-61
2021/04/25 07:01:42;;;;;;;0.10;0.10;;;;;;;;;;5061076;28;20175;-61
2021/04/25 07:04:09;;;;;;;0.40;0.40;;;;;;;;;;5061751;28;20167;-61
2021/04/25 07:06:36;;;;;;;0.00;0.00;;;;;;;;;;5053287;28;20186;-61
2021/04/25 07:09:03;;;;;;;0.10;0.10;;;;;;;;;;5061778;28;20916;-61
2021/04/25 07:11:29;;;;;;;0.20;0.20;;;;;;;;;;5061282;28;20181;-62
2021/04/25 07:13:56;;;;;;;0.17;0.17;;;;;;;;;;5061027;28;20803;-61
2021/04/25 07:16:23;;;;;;;0.10;0.10;;;;;;;;;;5060203;28;20976;-61
2021/04/25 07:18:50;;;;;;;0.10;0.10;;;;;;;;;;5061879;28;20591;-61
2021/04/25 07:21:17;;;;;;;0.00;0.00;;;;;;;;;;5061362;28;20167;-62
2021/04/25 07:23:43;;;;;;;0.00;0.00;;;;;;;;;;5062012;28;20186;-61
2021/04/25 07:26:12;;;;;;;0.00;0.00;;;;;;;;;;5062871;28;20854;-61
2021/04/25 07:28:38;;;;;;;0.13;0.13;;;;;;;;;;5061336;28;20176;-62
2021/04/25 07:31:05;;;;;;;0.10;0.10;;;;;;;;;;5061083;28;20232;-61
2021/04/25 07:33:32;;;;;;;0.23;0.23;;;;;;;;;;5061211;28;20166;-62
2021/04/25 07:35:59;;;;;;;0.10;0.10;;;;;;;;;;5061071;28;20199;-61
2021/04/25 07:38:26;;;;;;;0.10;0.10;;;;;;;;;;5060687;28;20168;-62
2021/04/25 07:40:52;;;;;;;0.10;0.10;;;;;;;;;;5060967;28;20174;-61
2021/04/25 07:43:19;;;;;;;1.20;0.57;;;;;;;;;;5063301;28;20167;-61
2021/04/25 07:45:45;;;;;;;1.03;0.53;;;;;;;;;;5061129;28;20190;-61
2021/04/25 07:48:12;;;;;;;0.30;0.30;;;;;;;;;;5063925;28;20984;-61
2021/04/25 07:50:39;;;;;;;0.40;0.40;;;;;;;;;;5060563;28;20175;-61
2021/04/25 07:53:05;;;;;;;0.00;0.00;;;;;;;;;;5060817;28;20501;-61
2021/04/25 07:55:32;;;;;;;1.17;1.17;;;;;;;;;;5060048;28;20202;-61
2021/04/25 07:57:59;;;;;;;0.50;0.50;;;;;;;;;;5060582;28;20165;-62
2021/04/25 08:00:25;;;;;;;0.30;0.30;;;;;;;;;;5063868;28;20214;-61
2021/04/25 08:02:52;;;;;;;0.20;0.20;;;;;;;;;;5062667;28;20237;-61
2021/04/25 08:05:18;;;;;;;0.50;0.50;;;;;;;;;;5056904;28;20179;-61
2021/04/25 08:07:47;;;;;;;0.53;0.50;;;;;;;;;;5060653;28;20714;-61
2021/04/25 08:10:13;;;;;;;0.10;0.10;;;;;;;;;;5059854;28;20167;-61
2021/04/25 08:12:40;;;;;;;0.80;0.27;;;;;;;;;;5060559;28;20613;-62
2021/04/25 08:15:07;;;;;;;0.10;0.10;;;;;;;;;;5059396;28;20216;-62
2021/04/25 08:17:34;;;;;;;0.30;0.30;;;;;;;;;;5060067;28;20202;-61
2021/04/25 08:20:00;;;;;;;0.63;0.50;;;;;;;;;;5060088;28;20253;-62
2021/04/25 08:22:33;;;;;;;1.90;1.63;;;;;;;;;;5064595;28;20227;-61
2021/04/25 08:25:00;;;;;;;0.10;0.10;;;;;;;;;;5060195;28;20266;-62
2021/04/25 08:27:27;;;;;;;0.10;0.10;;;;;;;;;;5060653;28;20633;-61
2021/04/25 08:29:53;;;;;;;0.00;0.00;;;;;;;;;;5060104;28;20661;-61
2021/04/25 08:32:20;;;;;;;0.50;0.50;;;;;;;;;;5059913;28;20170;-61
2021/04/25 08:34:46;;;;;;;0.00;0.00;;;;;;;;;;5060149;28;20238;-62
2021/04/25 08:37:14;;;;;;;3.40;3.20;;;;;;;;;;5060281;28;20233;-62
2021/04/25 08:39:41;;;;;;;0.83;0.60;;;;;;;;;;5060334;28;20170;-61
2021/04/25 08:42:07;;;;;;;0.10;0.10;;;;;;;;;;5059816;28;20174;-61
2021/04/25 08:44:34;;;;;;;0.20;0.20;;;;;;;;;;5059624;28;20633;-61
2021/04/25 08:47:01;;;;;;;1.43;0.40;;;;;;;;;;5059654;28;20832;-61
2021/04/25 08:49:28;;;;;;;2.47;0.53;;;;;;;;;;5061925;28;20174;-61
2021/04/25 08:51:55;;;;;;;0.07;0.07;;;;;;;;;;5068834;28;20178;-62
2021/04/25 08:54:25;;;;;;;0.10;0.10;;;;;;;;;;5059359;28;20228;-61
2021/04/25 08:56:52;;;;;;;0.50;0.50;;;;;;;;;;5059533;28;20206;-61
2021/04/25 08:59:18;;;;;;;0.07;0.07;;;;;;;;;;5059604;28;20167;-61
2021/04/25 09:01:45;;;;;;;0.00;0.00;;;;;;;;;;5055003;28;20859;-62
2021/04/25 09:04:12;;;;;;;0.00;0.00;;;;;;;;;;5059468;28;20187;-60
2021/04/25 09:07:11;;;;;;;0.10;0.10;;;;;;;;;;5058539;28;20194;-62
2021/04/25 13:44:50;;;;;;;0.03;0.03;;;;;;;;;;5082001;28;20569;-63
2021/04/25 13:47:17;;;;;;;0.27;0.27;;;;;;;;;;5089953;28;20170;-63
2021/04/25 13:49:44;;;;;;;8.73;0.33;;;;;;;;;;5099199;28;20822;-63
2021/04/25 13:52:11;;;;;;;0.50;0.23;;;;;;;;;;5101728;28;20196;-64
2021/04/25 13:54:37;;;;;;;0.20;0.20;;;;;;;;;;5101884;28;20653;-62
2021/04/25 13:57:06;;;;;;;0.00;0.00;;;;;;;;;;5102146;28;20244;-63
2021/04/25 13:59:32;;;;;;;0.47;0.40;;;;;;;;;;5091197;28;21078;-64
2021/04/25 14:01:59;;;;;;;0.00;0.00;;;;;;;;;;5080677;28;20240;-63
2021/04/25 14:04:26;;;;;;;0.07;0.07;;;;;;;;;;5080649;28;20210;-62
2021/04/25 14:06:54;;;;;;;0.67;0.30;;;;;;;;;;5080612;28;20154;-64
2021/04/25 14:09:21;;;;;;;0.07;0.00;;;;;;;;;;5085004;28;20629;-62
2021/04/25 14:11:49;;;;;;;0.00;0.00;;;;;;;;;;5082376;28;20166;-63
2021/04/25 14:14:16;;;;;;;0.53;0.27;;;;;;;;;;5081899;28;20832;-63
2021/04/25 14:16:43;;;;;;;0.10;0.10;;;;;;;;;;5081386;28;20167;-63
2021/04/25 14:19:18;;;;;;;0.10;0.00;;;;;;;;;;5079960;28;20171;-63
2021/04/25 14:21:48;;;;;;;0.93;0.43;;;;;;;;;;5081703;28;20647;-63
2021/04/25 14:24:21;;;;;;;0.27;0.27;;;;;;;;;;5081663;28;20657;-64
2021/04/25 14:26:51;;;;;;;0.00;0.00;;;;;;;;;;5080929;28;20186;-63
2021/04/25 14:29:19;;;;;;;1.33;0.70;;;;;;;;;;5082886;28;20237;-63
2021/04/25 14:31:46;;;;;;;1.37;0.17;;;;;;;;;;5081390;28;20185;-63
2021/04/25 14:34:13;;;;;;;1.13;0.43;;;;;;;;;;5081195;28;20239;-63
2021/04/25 14:36:39;;;;;;;0.87;0.10;;;;;;;;;;5079019;28;20238;-63
2021/04/25 14:39:08;;;;;;;0.00;0.00;;;;;;;;;;5079541;28;21080;-62
2021/04/25 14:41:37;;;;;;;0.00;0.00;;;;;;;;;;5080457;28;20170;-62
2021/04/25 14:44:05;;;;;;;0.00;0.00;;;;;;;;;;5081407;28;20234;-63
2021/04/25 14:46:33;;;;;;;0.00;0.00;;;;;;;;;;5081850;28;20174;-63
2021/04/25 14:49:00;;;;;;;1.73;1.63;;;;;;;;;;5083337;28;20160;-63
2021/04/25 14:51:29;;;;;;;0.10;0.07;;;;;;;;;;5082496;28;20238;-62
2021/04/25 14:53:57;;;;;;;0.30;0.30;;;;;;;;;;5081043;28;20624;-62
2021/04/25 14:56:23;;;;;;;2.00;0.63;;;;;;;;;;5067915;28;20486;-63
2021/04/25 14:58:50;;;;;;;7.80;0.23;;;;;;;;;;5079808;28;20530;-62
2021/04/25 15:01:23;;;;;;;0.00;0.00;;;;;;;;;;5089061;28;20179;-62
2021/04/25 15:03:49;;;;;;;0.00;0.00;;;;;;;;;;5087855;28;20213;-63
2021/04/25 15:06:16;;;;;;;0.27;0.27;;;;;;;;;;5087541;28;20405;-63
2021/04/25 15:08:44;;;;;;;0.27;0.03;;;;;;;;;;5087795;28;20186;-63
2021/04/25 15:11:11;;;;;;;5.10;0.40;;;;;;;;;;5088152;28;20600;-63
2021/04/25 15:13:39;;;;;;;1.90;1.50;;;;;;;;;;5086718;28;20170;-62
2021/04/25 15:16:06;;;;;;;1.00;0.73;;;;;;;;;;5078077;28;20171;-62
2021/04/25 15:18:32;;;;;;;0.00;0.00;;;;;;;;;;5066236;28;20228;-62
2021/04/25 15:20:59;;;;;;;0.00;0.00;;;;;;;;;;5065357;28;20171;-63
2021/04/25 15:23:26;;;;;;;1.30;0.17;;;;;;;;;;5065472;28;20197;-62
2021/04/25 15:25:52;;;;;;;2.67;1.17;;;;;;;;;;5065943;28;20241;-62
2021/04/25 15:28:22;;;;;;;2.07;0.60;;;;;;;;;;5065368;28;20703;-63
2021/04/25 15:30:49;;;;;;;0.10;0.10;;;;;;;;;;5065550;28;20163;-61
2021/04/25 15:33:15;;;;;;;4.30;0.83;;;;;;;;;;5065707;28;20167;-63
2021/04/25 15:35:42;;;;;;;0.00;0.00;;;;;;;;;;5065733;28;20179;-62
2021/04/25 15:38:08;;;;;;;0.10;0.10;;;;;;;;;;5064953;28;20175;-63
2021/04/25 15:40:36;;;;;;;0.57;0.27;;;;;;;;;;5066062;28;20777;-63
2021/04/25 15:43:04;;;;;;;0.23;0.10;;;;;;;;;;5077888;28;20223;-62
2021/04/25 15:45:39;;;;;;;0.77;0.33;;;;;;;;;;5087575;28;20186;-63
2021/04/25 15:48:07;;;;;;;0.00;0.00;;;;;;;;;;5084317;28;20170;-63
2021/04/25 15:50:34;;;;;;;0.13;0.13;;;;;;;;;;5085995;28;20203;-63
2021/04/25 15:53:02;;;;;;;7.50;1.27;;;;;;;;;;5086346;28;20610;-63
2021/04/25 15:55:32;;;;;;;1.37;0.20;;;;;;;;;;5086322;28;20730;-63
2021/04/25 15:58:01;;;;;;;0.00;0.00;;;;;;;;;;5087240;28;20171;-62
2021/04/25 16:00:27;;;;;;;0.00;0.00;;;;;;;;;;5086398;28;20168;-62
2021/04/25 16:02:55;;;;;;;0.00;0.00;;;;;;;;;;5084937;28;20232;-63
2021/04/25 16:05:23;;;;;;;1.03;0.60;;;;;;;;;;5085075;28;20175;-62
2021/04/25 16:07:51;;;;;;;0.57;0.27;;;;;;;;;;5081798;28;20170;-63
2021/04/25 16:10:19;;;;;;;1.30;0.77;;;;;;;;;;5085804;28;20185;-63
2021/04/25 16:12:46;;;;;;;9.73;1.07;;;;;;;;;;5087142;28;20166;-64
2021/04/25 16:15:16;;;;;;;1.30;0.30;;;;;;;;;;5086454;28;20171;-64
2021/04/25 16:17:44;;;;;;;0.20;0.20;;;;;;;;;;5085351;28;20608;-64
2021/04/25 16:20:13;;;;;;;1.30;0.20;;;;;;;;;;5084928;28;20177;-63
2021/04/25 16:22:43;;;;;;;4.03;0.70;;;;;;;;;;5084982;28;20953;-64
2021/04/25 16:25:10;;;;;;;0.00;0.00;;;;;;;;;;5085313;28;20174;-63
2021/04/25 16:27:37;;;;;;;2.07;1.17;;;;;;;;;;5084342;28;20276;-63
2021/04/25 16:30:07;;;;;;;0.30;0.30;;;;;;;;;;5085915;28;20658;-63
2021/04/25 16:32:34;;;;;;;2.33;0.47;;;;;;;;;;5084090;28;20189;-63
2021/04/25 16:35:02;;;;;;;0.00;0.00;;;;;;;;;;5081323;28;20200;-64
2021/04/25 16:37:28;;;;;;;1.70;1.60;;;;;;;;;;5087010;28;20165;-64
2021/04/25 16:39:55;;;;;;;0.87;0.20;;;;;;;;;;5084827;28;20602;-64
2021/04/25 16:42:22;;;;;;;1.60;0.00;;;;;;;;;;5082911;28;20182;-63
2021/04/25 16:44:54;;;;;;;0.00;0.00;;;;;;;;;;5084874;28;20245;-64
2021/04/25 16:47:22;;;;;;;1.60;0.73;;;;;;;;;;5080189;28;20192;-63
2021/04/25 16:49:48;;;;;;;0.00;0.00;;;;;;;;;;5064445;28;21035;-63
2021/04/25 16:52:16;;;;;;;0.20;0.20;;;;;;;;;;5063362;28;20166;-63
2021/04/25 16:54:42;;;;;;;0.63;0.20;;;;;;;;;;5063780;28;20167;-63
2021/04/25 16:57:09;;;;;;;0.00;0.00;;;;;;;;;;5063373;28;20164;-63
2021/04/25 16:59:37;;;;;;;2.27;0.37;;;;;;;;;;5063820;28;20174;-63
2021/04/25 17:02:05;;;;;;;0.37;0.20;;;;;;;;;;5063216;28;20166;-64
2021/04/25 17:04:32;;;;;;;0.00;0.00;;;;;;;;;;5062705;28;20199;-62
2021/04/25 17:06:59;;;;;;;0.57;0.20;;;;;;;;;;5064197;28;20171;-63
2021/04/25 17:09:26;;;;;;;1.60;0.10;;;;;;;;;;5065110;28;20257;-64
2021/04/25 17:11:53;;;;;;;0.00;0.00;;;;;;;;;;5062505;28;20216;-63
2021/04/25 17:14:21;;;;;;;0.00;0.00;;;;;;;;;;5067874;28;20640;-63
2021/04/25 17:16:48;;;;;;;1.53;0.93;;;;;;;;;;5063016;28;20183;-64
2021/04/25 17:19:14;;;;;;;0.40;0.33;;;;;;;;;;5062243;28;20636;-63
2021/04/25 17:21:41;;;;;;;0.00;0.00;;;;;;;;;;5064103;28;20624;-63
2021/04/25 17:24:08;;;;;;;28.03;4.13;;;;;;;;;;5064050;28;20205;-63
2021/04/25 17:26:35;;;;;;;3.07;0.70;;;;;;;;;;5062567;28;20198;-64
2021/04/25 17:29:02;;;;;;;0.67;0.50;;;;;;;;;;5052801;28;20190;-64
2021/04/25 17:31:28;;;;;;;0.53;0.40;;;;;;;;;;5060921;28;20177;-63
2021/04/25 17:33:55;;;;;;;0.10;0.10;;;;;;;;;;5062924;28;20178;-61
2021/04/25 17:36:24;;;;;;;0.00;0.00;;;;;;;;;;5064463;28;20190;-63
2021/04/25 17:38:54;;;;;;;1.50;0.57;;;;;;;;;;5060416;28;20186;-63
2021/04/25 17:41:24;;;;;;;0.40;0.40;;;;;;;;;;5059800;28;20652;-63
2021/04/25 17:43:59;;;;;;;0.00;0.00;;;;;;;;;;5065678;28;20236;-63
2021/04/25 17:46:28;;;;;;;0.30;0.20;;;;;;;;;;5063947;28;20173;-63
2021/04/25 17:48:57;;;;;;;0.10;0.10;;;;;;;;;;5062781;28;20185;-62
2021/04/25 17:51:23;;;;;;;0.20;0.20;;;;;;;;;;5062901;28;20187;-63
2021/04/25 17:53:58;;;;;;;0.57;0.40;;;;;;;;;;5070067;28;20202;-63
2021/04/25 17:56:31;;;;;;;0.23;0.20;;;;;;;;;;5059059;28;20827;-62
2021/04/25 17:59:01;;;;;;;0.77;0.27;;;;;;;;;;5054879;28;20187;-63
2021/04/25 18:01:29;;;;;;;0.73;0.20;;;;;;;;;;5052435;28;20215;-63
2021/04/25 18:03:57;;;;;;;3.60;2.53;;;;;;;;;;5068214;28;20249;-63
2021/04/25 18:06:24;;;;;;;0.40;0.40;;;;;;;;;;5063320;28;20180;-63
2021/04/25 18:08:51;;;;;;;0.00;0.00;;;;;;;;;;5065238;28;20197;-63
2021/04/25 18:11:33;;;;;;;0.00;0.00;;;;;;;;;;5065948;28;20175;-63
2021/04/25 18:14:03;;;;;;;0.00;0.00;;;;;;;;;;5065716;28;20567;-63
2021/04/25 18:16:30;;;;;;;0.00;0.00;;;;;;;;;;5059247;28;20191;-62
2021/04/25 18:18:57;;;;;;;8.03;1.50;;;;;;;;;;5055949;28;20208;-61
2021/04/25 18:21:24;;;;;;;0.00;0.00;;;;;;;;;;5045328;28;20209;-62
2021/04/25 18:23:51;;;;;;;0.50;0.20;;;;;;;;;;5052625;28;20207;-61
2021/04/25 18:26:19;;;;;;;6.53;0.73;;;;;;;;;;5055238;28;20184;-61
2021/04/25 18:28:48;;;;;;;0.43;0.27;;;;;;;;;;5054495;28;20186;-61
2021/04/25 18:31:16;;;;;;;0.00;0.00;;;;;;;;;;5054981;28;20180;-61
2021/04/25 18:33:43;;;;;;;1.90;1.10;;;;;;;;;;5052815;28;20240;-61
2021/04/25 18:36:10;;;;;;;0.10;0.10;;;;;;;;;;5050087;28;21096;-61
2021/04/25 18:38:37;;;;;;;0.20;0.10;;;;;;;;;;5055126;28;20183;-62
2021/04/25 18:41:05;;;;;;;0.57;0.33;;;;;;;;;;5058903;28;20193;-61
2021/04/25 18:43:33;;;;;;;0.03;0.03;;;;;;;;;;5055630;28;20260;-62
2021/04/25 18:46:00;;;;;;;0.00;0.00;;;;;;;;;;5054684;28;21243;-61
2021/04/25 18:48:27;;;;;;;0.67;0.10;;;;;;;;;;5057062;28;20869;-62
2021/04/25 18:50:54;;;;;;;0.10;0.10;;;;;;;;;;5054867;28;20236;-61
2021/04/25 18:53:21;;;;;;;0.10;0.03;;;;;;;;;;5056555;28;20205;-62
2021/04/25 18:55:48;;;;;;;1.90;0.47;;;;;;;;;;5055198;28;20213;-61
2021/04/25 18:58:15;;;;;;;1.37;1.27;;;;;;;;;;5057213;28;20203;-61
2021/04/25 19:00:46;;;;;;;0.00;0.00;;;;;;;;;;5056590;28;20293;-62
2021/04/25 19:03:17;;;;;;;1.80;0.90;;;;;;;;;;5056855;28;20206;-62
2021/04/25 19:05:44;;;;;;;0.40;0.40;;;;;;;;;;5052110;28;20218;-61
2021/04/25 19:08:13;;;;;;;1.03;0.43;;;;;;;;;;5056917;28;20175;-61
2021/04/25 19:10:41;;;;;;;0.20;0.10;;;;;;;;;;5056060;28;20303;-61
2021/04/25 19:13:08;;;;;;;0.40;0.20;;;;;;;;;;5056448;28;20193;-62
2021/04/25 19:15:35;;;;;;;0.23;0.17;;;;;;;;;;5054888;28;20190;-62
2021/04/25 19:18:04;;;;;;;20.27;0.97;;;;;;;;;;5054187;28;20195;-62